createdAt,value
2023-02-11T00:01:43.816Z,36.58
2023-02-11T00:04:11.418Z,35.22
2023-02-11T00:06:45.169Z,36.15
2023-02-11T00:09:12.764Z,34.20
2023-02-11T00:11:43.519Z,34.65
2023-02-11T00:14:12.947Z,35.40
2023-02-11T00:16:41.514Z,35.40
2023-02-11T00:19:09.128Z,35.20
2023-02-11T00:21:36.815Z,34.35
2023-02-11T00:24:04.661Z,34.58
2023-02-11T00:26:32.399Z,34.17
2023-02-11T00:29:02.952Z,34.47
2023-02-11T00:31:30.659Z,32.78
2023-02-11T00:33:58.527Z,33.55
2023-02-11T00:36:28.437Z,33.17
2023-02-11T00:38:56.019Z,33.03
2023-02-11T00:41:23.736Z,31.80
2023-02-11T00:43:52.958Z,32.22
2023-02-11T00:46:20.644Z,32.05
2023-02-11T00:48:48.281Z,32.35
2023-02-11T00:51:16.253Z,32.30
2023-02-11T00:53:43.840Z,32.60
2023-02-11T00:56:11.488Z,30.73
2023-02-11T00:58:41.481Z,33.13
2023-02-11T01:01:09.422Z,33.20
2023-02-11T01:03:42.298Z,32.28
2023-02-11T01:06:14.860Z,31.95
2023-02-11T01:08:49.486Z,31.77
2023-02-11T01:11:19.649Z,32.13
2023-02-11T01:13:47.738Z,32.88
2023-02-11T01:16:15.369Z,34.08
2023-02-11T01:18:43.131Z,34.95
2023-02-11T01:21:18.580Z,33.47
2023-02-11T01:23:48.207Z,34.55
2023-02-11T01:26:35.875Z,35.85
2023-02-11T01:29:05.412Z,34.00
2023-02-11T01:31:33.076Z,35.83
2023-02-11T01:34:00.641Z,34.28
2023-02-11T01:36:30.549Z,34.38
2023-02-11T01:38:58.114Z,34.33
2023-02-11T01:41:25.653Z,35.05
2023-02-11T01:43:55.611Z,36.15
2023-02-11T01:46:23.290Z,35.53
2023-02-11T01:48:51.129Z,36.22
2023-02-11T01:51:21.101Z,34.88
2023-02-11T01:53:48.787Z,32.75
2023-02-11T01:56:16.374Z,34.10
2023-02-11T01:58:45.871Z,33.42
2023-02-11T02:01:13.412Z,30.50
2023-02-11T02:03:41.077Z,31.40
2023-02-11T02:06:11.072Z,31.83
2023-02-11T02:08:38.715Z,32.58
2023-02-11T02:11:08.341Z,31.60
2023-02-11T02:13:38.324Z,32.22
2023-02-11T02:16:08.600Z,30.55
2023-02-11T02:18:41.888Z,30.77
2023-02-11T02:21:09.595Z,30.52
2023-02-11T02:23:37.136Z,30.85
2023-02-11T02:26:04.929Z,30.45
2023-02-11T02:28:32.613Z,30.00
2023-02-11T02:31:00.404Z,31.23
2023-02-11T02:33:30.259Z,31.55
2023-02-11T02:35:57.981Z,31.33
2023-02-11T02:38:25.572Z,32.13
2023-02-11T02:40:55.277Z,31.27
2023-02-11T02:43:23.607Z,31.02
2023-02-11T02:45:51.526Z,31.10
2023-02-11T02:48:21.540Z,32.25
2023-02-11T02:50:49.465Z,31.88
2023-02-11T02:53:17.037Z,31.65
2023-02-11T02:55:47.055Z,30.58
2023-02-11T02:58:14.668Z,31.13
2023-02-11T03:00:42.364Z,30.40
2023-02-11T03:03:12.452Z,31.52
2023-02-11T03:05:40.073Z,32.33
2023-02-11T03:08:21.526Z,30.65
2023-02-11T03:10:49.129Z,31.02
2023-02-11T03:13:17.014Z,31.35
2023-02-11T03:15:47.085Z,30.92
2023-02-11T03:18:15.900Z,32.92
2023-02-11T03:20:51.052Z,32.57
2023-02-11T03:23:18.696Z,31.70
2023-02-11T03:25:46.266Z,31.10
2023-02-11T03:28:16.622Z,32.03
2023-02-11T03:30:44.346Z,32.25
2023-02-11T03:33:12.383Z,31.73
2023-02-11T03:35:42.465Z,31.92
2023-02-11T03:38:10.332Z,31.48
2023-02-11T03:40:38.705Z,30.27
2023-02-11T03:43:06.541Z,30.95
2023-02-11T03:45:34.148Z,30.27
2023-02-11T03:48:01.762Z,29.80
2023-02-11T03:50:31.343Z,27.92
2023-02-11T03:52:58.909Z,27.48
2023-02-11T03:55:26.463Z,28.25
2023-02-11T03:57:56.274Z,26.00
2023-02-11T04:00:23.854Z,26.10
2023-02-11T04:02:51.574Z,24.90
2023-02-11T04:05:21.214Z,24.05
2023-02-11T04:07:49.776Z,23.65
2023-02-11T04:10:17.339Z,23.73
2023-02-11T04:12:47.063Z,22.15
2023-02-11T04:15:16.536Z,22.65
2023-02-11T04:17:44.116Z,22.52
2023-02-11T04:20:14.273Z,22.55
2023-02-11T04:22:41.796Z,22.42
2023-02-11T04:25:09.374Z,21.35
2023-02-11T04:27:39.263Z,20.35
2023-02-11T04:30:06.829Z,19.80
2023-02-11T04:32:34.385Z,18.75
2023-02-11T04:35:04.174Z,18.83
2023-02-11T04:37:31.936Z,17.67
2023-02-11T04:39:59.500Z,17.73
2023-02-11T04:42:29.337Z,17.13
2023-02-11T04:44:57.317Z,19.02
2023-02-11T04:47:24.893Z,17.90
2023-02-11T04:49:54.662Z,17.73
2023-02-11T04:52:22.283Z,17.80
2023-02-11T04:54:49.834Z,17.00
2023-02-11T04:57:19.658Z,18.33
2023-02-11T04:59:47.430Z,18.67
2023-02-11T05:02:14.952Z,18.13
2023-02-11T05:04:50.637Z,18.80
2023-02-11T05:07:18.177Z,18.15
2023-02-11T05:09:45.809Z,16.75
2023-02-11T05:12:14.791Z,18.60
2023-02-11T05:14:42.502Z,18.73
2023-02-11T05:17:10.055Z,17.98
2023-02-11T05:19:39.779Z,18.58
2023-02-11T05:22:07.339Z,18.42
2023-02-11T05:24:34.898Z,18.92
2023-02-11T05:27:04.685Z,17.55
2023-02-11T05:29:32.517Z,17.42
2023-02-11T05:32:00.037Z,16.23
2023-02-11T05:34:29.780Z,15.85
2023-02-11T05:36:57.414Z,16.92
2023-02-11T05:39:25.043Z,16.58
2023-02-11T05:41:54.987Z,16.95
2023-02-11T05:44:22.628Z,16.10
2023-02-11T05:46:50.255Z,16.95
2023-02-11T05:49:19.732Z,17.15
2023-02-11T05:51:47.290Z,15.90
2023-02-11T05:54:15.020Z,15.13
2023-02-11T05:56:46.296Z,14.80
2023-02-11T05:59:14.055Z,14.90
2023-02-11T06:01:41.625Z,15.38
2023-02-11T06:04:12.562Z,14.52
2023-02-11T06:06:40.192Z,15.98
2023-02-11T06:09:08.773Z,14.90
2023-02-11T06:11:39.056Z,14.60
2023-02-11T06:14:06.612Z,14.70
2023-02-11T06:16:46.713Z,15.07
2023-02-11T06:19:14.742Z,14.15
2023-02-11T06:21:44.569Z,14.63
2023-02-11T06:24:17.423Z,15.00
2023-02-11T06:26:47.448Z,14.70
2023-02-11T06:29:18.060Z,15.40
2023-02-11T06:31:46.099Z,14.13
2023-02-11T06:34:14.496Z,14.68
2023-02-11T06:36:45.442Z,14.02
2023-02-11T06:39:13.586Z,13.20
2023-02-11T06:41:42.180Z,13.73
2023-02-11T06:44:13.311Z,13.50
2023-02-11T06:46:41.268Z,13.65
2023-02-11T06:49:09.672Z,12.05
2023-02-11T06:51:40.519Z,13.18
2023-02-11T06:54:08.636Z,12.43
2023-02-11T06:56:37.360Z,13.10
2023-02-11T06:59:06.993Z,13.10
2023-02-11T07:01:34.611Z,12.70
2023-02-11T07:04:10.261Z,11.48
2023-02-11T07:06:39.793Z,11.77
2023-02-11T07:09:07.506Z,12.10
2023-02-11T07:11:35.048Z,11.93
2023-02-11T07:14:06.739Z,12.13
2023-02-11T07:16:34.440Z,11.50
2023-02-11T07:19:03.313Z,10.75
2023-02-11T07:21:33.347Z,10.50
2023-02-11T07:24:00.901Z,11.48
2023-02-11T07:26:28.696Z,10.77
2023-02-11T07:29:05.799Z,11.20
2023-02-11T07:31:39.123Z,11.13
2023-02-11T07:34:07.493Z,10.02
2023-02-11T07:36:35.033Z,10.85
2023-02-11T07:39:02.815Z,10.73
2023-02-11T07:41:31.766Z,11.20
2023-02-11T07:43:59.489Z,10.52
2023-02-11T07:46:27.286Z,10.50
2023-02-11T07:48:56.849Z,10.75
2023-02-11T07:51:24.512Z,10.63
2023-02-11T07:53:52.213Z,10.35
2023-02-11T07:56:36.784Z,10.57
2023-02-11T07:59:09.412Z,10.32
2023-02-11T08:01:39.462Z,9.50
2023-02-11T08:04:25.458Z,10.07
2023-02-11T08:06:57.770Z,10.02
2023-02-11T08:11:54.506Z,10.25
2023-02-11T08:14:24.222Z,9.90
2023-02-11T08:16:52.074Z,9.90
2023-02-11T08:19:19.822Z,10.02
2023-02-11T08:21:54.916Z,10.13
2023-02-11T08:24:22.508Z,9.73
2023-02-11T08:29:48.369Z,9.65
2023-02-11T08:32:15.963Z,9.30
2023-02-11T08:34:43.792Z,10.75
2023-02-11T08:37:13.519Z,9.32
2023-02-11T08:39:41.360Z,9.13
2023-02-11T08:42:08.996Z,9.55
2023-02-11T08:44:38.904Z,9.80
2023-02-11T08:47:06.725Z,9.45
2023-02-11T08:49:34.306Z,9.77
2023-02-11T08:52:02.064Z,9.30
2023-02-11T08:54:29.652Z,9.18
2023-02-11T08:56:57.468Z,8.88
2023-02-11T08:59:26.839Z,9.40
2023-02-11T09:01:56.210Z,9.27
2023-02-11T09:04:23.922Z,9.20
2023-02-11T09:06:54.080Z,10.18
2023-02-11T09:09:21.709Z,9.90
2023-02-11T09:11:49.673Z,9.63
2023-02-11T09:14:22.334Z,9.45
2023-02-11T09:16:50.435Z,9.50
2023-02-11T09:19:19.628Z,9.10
2023-02-11T09:21:49.402Z,8.93
2023-02-11T09:24:19.063Z,9.13
2023-02-11T09:26:49.374Z,9.25
2023-02-11T09:29:17.024Z,9.57
2023-02-11T09:31:44.933Z,9.35
2023-02-11T09:34:12.636Z,8.55
2023-02-11T09:36:43.732Z,11.13
2023-02-11T09:39:11.326Z,12.80
2023-02-11T09:41:38.856Z,10.60
2023-02-11T09:44:08.625Z,10.60
2023-02-11T09:46:36.533Z,12.43
2023-02-11T09:49:04.181Z,10.55
2023-02-11T09:51:31.740Z,8.65
2023-02-11T09:54:03.197Z,8.65
2023-02-11T09:56:41.135Z,8.85
2023-02-11T09:59:28.788Z,9.48
2023-02-11T10:01:58.491Z,9.32
2023-02-11T10:04:26.088Z,10.10
2023-02-11T10:06:54.325Z,11.82
2023-02-11T10:09:24.075Z,11.20
2023-02-11T10:11:51.561Z,12.48
2023-02-11T10:14:20.608Z,13.77
2023-02-11T10:16:48.192Z,14.70
2023-02-11T10:19:16.527Z,13.98
2023-02-11T10:21:51.128Z,14.38
2023-02-11T10:24:19.038Z,11.90
2023-02-11T10:26:51.395Z,10.55
2023-02-11T10:29:34.023Z,9.55
2023-02-11T10:32:01.919Z,9.32
2023-02-11T10:34:29.670Z,10.40
2023-02-11T10:36:59.503Z,9.98
2023-02-11T10:39:27.345Z,10.68
2023-02-11T10:41:54.914Z,12.82
2023-02-11T10:44:24.325Z,13.48
2023-02-11T10:46:52.075Z,14.35
2023-02-11T10:49:19.798Z,15.13
2023-02-11T10:51:49.577Z,13.98
2023-02-11T10:54:17.442Z,12.57
2023-02-11T10:56:44.932Z,11.27
2023-02-11T10:59:12.494Z,10.52
2023-02-11T11:01:40.126Z,10.65
2023-02-11T11:04:08.504Z,9.90
2023-02-11T11:06:38.231Z,10.52
2023-02-11T11:09:06.034Z,9.18
2023-02-11T11:11:33.944Z,9.38
2023-02-11T11:14:03.667Z,10.20
2023-02-11T11:16:31.748Z,10.80
2023-02-11T11:18:59.414Z,10.77
2023-02-11T11:21:35.928Z,11.05
2023-02-11T11:24:05.704Z,11.02
2023-02-11T11:26:36.249Z,12.60
2023-02-11T11:29:06.285Z,12.20
2023-02-11T11:31:34.116Z,13.20
2023-02-11T11:34:01.952Z,14.07
2023-02-11T11:36:31.534Z,16.85
2023-02-11T11:38:59.716Z,15.43
2023-02-11T11:41:27.867Z,16.77
2023-02-11T11:43:57.531Z,18.50
2023-02-11T11:46:25.564Z,20.23
2023-02-11T11:48:53.398Z,21.42
2023-02-11T11:51:23.497Z,20.38
2023-02-11T11:53:52.367Z,19.33
2023-02-11T11:59:03.933Z,19.13
2023-02-11T12:01:32.598Z,19.02
2023-02-11T12:04:00.743Z,18.38
2023-02-11T12:06:28.618Z,18.98
2023-02-11T12:08:57.544Z,19.40
2023-02-11T12:11:25.505Z,19.25
2023-02-11T12:13:55.620Z,19.40
2023-02-11T12:16:23.997Z,19.58
2023-02-11T12:18:51.652Z,19.17
2023-02-11T12:21:21.570Z,21.88
2023-02-11T12:23:51.535Z,26.77
2023-02-11T12:26:19.146Z,29.85
2023-02-11T12:28:47.873Z,28.67
2023-02-11T12:31:15.727Z,27.95
2023-02-11T12:33:43.388Z,25.45
2023-02-11T12:36:11.164Z,24.52
2023-02-11T12:38:38.971Z,24.15
2023-02-11T12:43:47.560Z,21.70
2023-02-11T12:46:15.254Z,21.52
2023-02-11T12:48:42.850Z,22.83
2023-02-11T12:51:10.443Z,23.50
2023-02-11T12:53:38.025Z,23.65
2023-02-11T12:56:05.655Z,25.20
2023-02-11T12:58:44.616Z,26.55
2023-02-11T13:01:13.093Z,25.67
2023-02-11T13:03:41.045Z,26.42
2023-02-11T13:06:08.758Z,26.38
2023-02-11T13:08:36.588Z,25.65
2023-02-11T13:11:07.210Z,24.67
2023-02-11T13:13:34.969Z,23.35
2023-02-11T13:16:02.642Z,23.73
2023-02-11T13:18:33.638Z,22.58
2023-02-11T13:21:01.492Z,21.80
2023-02-11T13:23:31.511Z,21.17
2023-02-11T13:26:01.811Z,20.85
2023-02-11T13:28:29.579Z,21.25
2023-02-11T13:30:59.737Z,20.60
2023-02-11T13:33:27.856Z,20.98
2023-02-11T13:35:55.560Z,19.52
2023-02-11T13:38:23.312Z,18.83
2023-02-11T13:40:53.166Z,18.92
2023-02-11T13:43:21.106Z,18.80
2023-02-11T13:45:48.784Z,19.98
2023-02-11T13:48:18.833Z,20.15
2023-02-11T13:50:46.916Z,19.65
2023-02-11T13:53:16.020Z,20.50
2023-02-11T13:58:25.277Z,22.95
2023-02-11T14:00:55.653Z,24.90
2023-02-11T14:03:23.363Z,23.88
2023-02-11T14:05:51.039Z,24.48
2023-02-11T14:08:20.889Z,27.35
2023-02-11T14:10:49.111Z,25.58
2023-02-11T14:13:16.904Z,26.02
2023-02-11T14:15:44.915Z,24.85
2023-02-11T14:18:12.508Z,24.55
2023-02-11T14:20:40.225Z,25.83
2023-02-11T14:23:08.168Z,26.38
2023-02-11T14:25:35.954Z,24.65
2023-02-11T14:28:08.582Z,26.50
2023-02-11T14:30:38.799Z,25.25
2023-02-11T14:33:06.488Z,25.38
2023-02-11T14:35:35.034Z,25.63
2023-02-11T14:38:02.730Z,25.33
2023-02-11T14:40:30.483Z,25.35
2023-02-11T14:42:58.358Z,25.35
2023-02-11T14:45:28.192Z,25.08
2023-02-11T14:47:55.821Z,25.10
2023-02-11T14:50:23.485Z,24.75
2023-02-11T14:52:54.031Z,25.70
2023-02-11T14:55:25.897Z,25.35
2023-02-11T14:57:54.154Z,25.05
2023-02-11T15:00:24.045Z,26.00
2023-02-11T15:02:53.264Z,24.52
2023-02-11T15:05:21.111Z,25.08
2023-02-11T15:07:51.350Z,26.17
2023-02-11T15:10:19.328Z,26.48
2023-02-11T15:12:47.375Z,26.30
2023-02-11T15:15:17.131Z,27.60
2023-02-11T15:17:44.871Z,26.98
2023-02-11T15:20:12.478Z,25.83
2023-02-11T15:22:40.080Z,26.67
2023-02-11T15:25:07.864Z,26.88
2023-02-11T15:27:35.408Z,27.13
2023-02-11T15:30:04.876Z,29.00
2023-02-11T15:32:32.917Z,29.60
2023-02-11T15:35:00.570Z,26.30
2023-02-11T15:37:30.092Z,24.63
2023-02-11T15:39:57.860Z,27.05
2023-02-11T15:42:25.458Z,26.27
2023-02-11T15:44:56.836Z,25.23
2023-02-11T15:47:24.632Z,24.20
2023-02-11T15:49:54.969Z,23.85
2023-02-11T15:52:24.604Z,23.42
2023-02-11T15:54:52.262Z,23.40
2023-02-11T15:57:19.803Z,25.35
2023-02-11T15:59:49.509Z,25.73
2023-02-11T16:02:17.220Z,25.92
2023-02-11T16:04:45.720Z,24.40
2023-02-11T16:07:15.446Z,25.08
2023-02-11T16:09:43.039Z,24.52
2023-02-11T16:12:10.558Z,21.98
2023-02-11T16:14:39.953Z,19.85
2023-02-11T16:17:07.562Z,18.23
2023-02-11T16:19:35.128Z,17.20
2023-02-11T16:22:03.740Z,17.45
2023-02-11T16:24:32.114Z,17.83
2023-02-11T16:26:59.638Z,18.98
2023-02-11T16:29:31.469Z,19.58
2023-02-11T16:31:59.285Z,20.52
2023-02-11T16:34:26.835Z,18.88
2023-02-11T16:36:56.564Z,18.33
2023-02-11T16:39:24.289Z,18.05
2023-02-11T16:41:51.894Z,18.02
2023-02-11T16:44:21.611Z,17.60
2023-02-11T16:46:49.519Z,18.30
2023-02-11T16:49:17.131Z,18.10
2023-02-11T16:51:46.802Z,17.40
2023-02-11T16:54:14.419Z,18.30
2023-02-11T16:56:41.960Z,18.30
2023-02-11T16:59:11.840Z,18.40
2023-02-11T17:01:39.927Z,18.98
2023-02-11T17:04:07.861Z,17.75
2023-02-11T17:06:37.575Z,17.08
2023-02-11T17:09:05.230Z,17.38
2023-02-11T17:11:33.370Z,17.15
2023-02-11T17:14:03.945Z,16.60
2023-02-11T17:16:31.869Z,17.45
2023-02-11T17:18:59.500Z,17.23
2023-02-11T17:21:30.157Z,17.73
2023-02-11T17:23:58.184Z,17.23
2023-02-11T17:26:25.721Z,17.23
2023-02-11T17:28:55.383Z,16.73
2023-02-11T17:31:41.207Z,18.00
2023-02-11T17:34:11.049Z,18.70
2023-02-11T17:36:38.828Z,17.70
2023-02-11T17:39:08.233Z,18.60
2023-02-11T17:41:38.186Z,18.25
2023-02-11T17:44:05.738Z,19.25
2023-02-11T17:46:33.871Z,19.05
2023-02-11T17:49:03.974Z,18.92
2023-02-11T17:51:33.009Z,19.30
2023-02-11T17:54:00.911Z,19.23
2023-02-11T17:56:30.357Z,18.90
2023-02-11T17:58:57.917Z,17.65
2023-02-11T18:01:29.967Z,18.33
2023-02-11T18:04:00.780Z,18.52
2023-02-11T18:06:38.491Z,18.58
2023-02-11T18:09:06.716Z,19.33
2023-02-11T18:11:37.318Z,18.40
2023-02-11T18:14:27.087Z,18.63
2023-02-11T18:16:54.781Z,18.95
2023-02-11T18:19:22.400Z,19.63
2023-02-11T18:21:52.157Z,19.33
2023-02-11T18:24:19.670Z,20.08
2023-02-11T18:26:47.182Z,19.27
2023-02-11T18:29:16.845Z,19.42
2023-02-11T18:31:44.761Z,18.83
2023-02-11T18:34:14.183Z,18.73
2023-02-11T18:36:45.245Z,18.23
2023-02-11T18:39:12.808Z,18.45
2023-02-11T18:41:40.436Z,19.75
2023-02-11T18:44:09.945Z,21.13
2023-02-11T18:46:37.462Z,22.83
2023-02-11T18:49:05.166Z,22.52
2023-02-11T18:51:35.054Z,22.20
2023-02-11T18:54:02.529Z,21.80
2023-02-11T18:56:30.062Z,22.13
2023-02-11T18:59:00.199Z,21.95
2023-02-11T19:01:27.834Z,22.77
2023-02-11T19:03:55.421Z,22.20
2023-02-11T19:06:25.024Z,21.48
2023-02-11T19:08:52.546Z,22.45
2023-02-11T19:11:20.054Z,22.85
2023-02-11T19:13:49.651Z,22.17
2023-02-11T19:16:17.250Z,23.05
2023-02-11T19:18:44.837Z,23.20
2023-02-11T19:21:15.026Z,22.52
2023-02-11T19:23:42.595Z,22.77
2023-02-11T19:26:10.163Z,22.05
2023-02-11T19:28:39.926Z,22.25
2023-02-11T19:31:07.695Z,23.33
2023-02-11T19:33:35.276Z,21.60
2023-02-11T19:36:04.736Z,22.80
2023-02-11T19:38:32.271Z,22.52
2023-02-11T19:40:59.843Z,23.45
2023-02-11T19:43:29.380Z,23.02
2023-02-11T19:45:56.902Z,22.42
2023-02-11T19:48:24.471Z,23.02
2023-02-11T19:50:57.398Z,22.15
2023-02-11T19:53:24.895Z,22.20
2023-02-11T19:55:52.777Z,23.58
2023-02-11T19:58:22.435Z,22.33
2023-02-11T20:00:49.958Z,22.48
2023-02-11T20:03:17.679Z,21.83
2023-02-11T20:05:47.221Z,22.65
2023-02-11T20:08:14.832Z,22.05
2023-02-11T20:10:42.711Z,22.45
2023-02-11T20:13:12.138Z,21.90
2023-02-11T20:15:39.869Z,22.08
2023-02-11T20:18:07.803Z,22.50
2023-02-11T20:20:37.384Z,22.20
2023-02-11T20:23:04.962Z,22.55
2023-02-11T20:25:33.178Z,22.00
2023-02-11T20:28:02.695Z,21.63
2023-02-11T20:30:30.494Z,21.25
2023-02-11T20:32:58.219Z,21.67
2023-02-11T20:35:26.801Z,23.08
2023-02-11T20:37:54.484Z,22.20
2023-02-11T20:40:22.177Z,22.33
2023-02-11T20:42:51.935Z,22.63
2023-02-11T20:45:19.486Z,22.05
2023-02-11T20:47:47.203Z,21.98
2023-02-11T20:50:16.640Z,23.17
2023-02-11T20:52:44.296Z,23.45
2023-02-11T20:55:11.840Z,23.42
2023-02-11T20:57:41.476Z,23.10
2023-02-11T21:00:09.048Z,22.58
2023-02-11T21:02:37.177Z,22.90
2023-02-11T21:05:06.635Z,24.05
2023-02-11T21:07:34.222Z,22.80
2023-02-11T21:10:01.951Z,24.20
2023-02-11T21:12:31.494Z,25.58
2023-02-11T21:14:59.065Z,24.58
2023-02-11T21:17:26.799Z,24.38
2023-02-11T21:19:56.271Z,25.98
2023-02-11T21:22:23.765Z,24.30
2023-02-11T21:24:51.536Z,26.15
2023-02-11T21:27:20.963Z,26.02
2023-02-11T21:29:54.099Z,25.75
2023-02-11T21:34:52.287Z,25.83
2023-02-11T21:37:19.901Z,26.42
2023-02-11T21:39:50.801Z,26.20
2023-02-11T21:42:18.378Z,26.15
2023-02-11T21:44:45.901Z,26.65
2023-02-11T21:47:14.745Z,26.02
2023-02-11T21:49:42.330Z,26.58
2023-02-11T21:52:09.897Z,27.13
2023-02-11T21:54:41.709Z,28.40
2023-02-11T21:57:09.473Z,29.08
2023-02-11T21:59:37.022Z,29.25
2023-02-11T22:02:05.793Z,30.27
2023-02-11T22:04:33.384Z,36.63
2023-02-11T22:07:00.957Z,34.33
2023-02-11T22:09:30.994Z,34.33
2023-02-11T22:11:59.172Z,31.83
2023-02-11T22:14:26.735Z,32.58
2023-02-11T22:16:56.771Z,31.95
2023-02-11T22:19:24.487Z,30.80
2023-02-11T22:21:52.105Z,29.92
2023-02-11T22:24:21.670Z,28.42
2023-02-11T22:26:49.234Z,29.40
2023-02-11T22:29:16.718Z,30.50
2023-02-11T22:31:46.229Z,30.95
2023-02-11T22:34:13.796Z,33.65
2023-02-11T22:36:41.338Z,34.25
2023-02-11T22:39:13.861Z,34.65
2023-02-11T22:41:45.003Z,34.75
2023-02-11T22:44:12.753Z,32.40
2023-02-11T22:46:42.424Z,34.63
2023-02-11T22:49:10.053Z,34.42
2023-02-11T22:51:37.678Z,34.17
2023-02-11T22:54:07.384Z,36.95
2023-02-11T22:56:35.012Z,36.05
2023-02-11T22:59:03.339Z,39.28
2023-02-11T23:01:33.170Z,39.20
2023-02-11T23:04:01.161Z,43.55
2023-02-11T23:06:28.971Z,44.08
2023-02-11T23:08:57.662Z,43.90
2023-02-11T23:11:25.300Z,43.08
2023-02-11T23:13:53.340Z,45.47
2023-02-11T23:16:23.085Z,46.13
2023-02-11T23:18:50.687Z,43.53
2023-02-11T23:21:18.835Z,44.15
2023-02-11T23:23:48.532Z,44.25
2023-02-11T23:26:16.807Z,42.10
2023-02-11T23:28:47.084Z,44.90
2023-02-11T23:31:21.371Z,55.42
2023-02-11T23:33:52.770Z,46.65
2023-02-11T23:36:21.809Z,46.53
2023-02-11T23:39:02.443Z,41.88
2023-02-11T23:41:31.537Z,50.58
2023-02-11T23:43:59.659Z,74.57
2023-02-11T23:46:38.864Z,62.55
2023-02-11T23:49:07.770Z,57.63
2023-02-11T23:51:37.006Z,48.97
2023-02-11T23:54:10.900Z,46.35
2023-02-11T23:56:48.579Z,45.75
2023-02-11T23:59:21.340Z,44.58
